createdAt,value
2019-01-27T00:00:36.260Z,69.68
2019-01-27T00:01:16.870Z,70.15
2019-01-27T00:01:57.544Z,69.87
2019-01-27T00:02:38.193Z,70.15
2019-01-27T00:03:18.830Z,70.15
2019-01-27T00:03:59.510Z,69.96
2019-01-27T00:04:40.120Z,69.48
2019-01-27T00:05:20.750Z,69.87
2019-01-27T00:06:01.372Z,70.15
2019-01-27T00:06:42.136Z,69.77
2019-01-27T00:07:22.802Z,69.87
2019-01-27T00:08:03.428Z,70.15
2019-01-27T00:08:44.064Z,69.48
2019-01-27T00:09:24.704Z,69.87
2019-01-27T00:10:05.326Z,69.96
2019-01-27T00:10:45.975Z,69.68
2019-01-27T00:11:26.586Z,69.87
2019-01-27T00:12:07.206Z,69.68
2019-01-27T00:12:47.804Z,69.96
2019-01-27T00:13:28.434Z,69.68
2019-01-27T00:14:09.065Z,69.58
2019-01-27T00:14:49.668Z,69.68
2019-01-27T00:15:30.300Z,69.68
2019-01-27T00:16:10.938Z,69.58
2019-01-27T00:16:51.546Z,69.58
2019-01-27T00:17:32.233Z,69.68
2019-01-27T00:18:12.882Z,69.77
2019-01-27T00:18:53.526Z,69.77
2019-01-27T00:19:34.182Z,69.58
2019-01-27T00:20:14.790Z,69.68
2019-01-27T00:20:55.420Z,69.68
2019-01-27T00:21:36.062Z,69.58
2019-01-27T00:22:18.094Z,69.68
2019-01-27T00:22:57.326Z,69.68
2019-01-27T00:23:37.944Z,69.58
2019-01-27T00:24:18.592Z,69.48
2019-01-27T00:24:59.208Z,69.39
2019-01-27T00:25:39.868Z,69.58
2019-01-27T00:26:20.486Z,69.39
2019-01-27T00:27:01.119Z,69.39
2019-01-27T00:27:41.744Z,69.48
2019-01-27T00:28:22.462Z,69.39
2019-01-27T00:29:03.088Z,69.39
2019-01-27T00:29:43.765Z,69.48
2019-01-27T00:30:24.385Z,69.39
2019-01-27T00:31:04.998Z,69.48
2019-01-27T00:31:45.618Z,69.48
2019-01-27T00:32:26.222Z,69.77
2019-01-27T00:33:06.836Z,69.58
2019-01-27T00:33:47.442Z,69.58
2019-01-27T00:34:28.116Z,69.96
2019-01-27T00:35:10.442Z,69.1
2019-01-27T00:35:51.049Z,69.39
2019-01-27T00:36:31.721Z,69.39
2019-01-27T00:37:12.345Z,68.81
2019-01-27T00:37:53.000Z,68.91
2019-01-27T00:38:33.643Z,69.29
2019-01-27T00:39:14.317Z,69.1
2019-01-27T00:39:54.910Z,68.91
2019-01-27T00:40:35.526Z,69.1
2019-01-27T00:41:16.142Z,69.01
2019-01-27T00:41:56.742Z,68.91
2019-01-27T00:42:37.353Z,68.62
2019-01-27T00:43:18.134Z,69.29
2019-01-27T00:43:58.724Z,68.81
2019-01-27T00:44:39.394Z,69.01
2019-01-27T00:45:20.086Z,68.72
2019-01-27T00:46:00.685Z,68.91
2019-01-27T00:46:41.293Z,69.01
2019-01-27T00:47:21.882Z,69.1
2019-01-27T00:48:02.496Z,68.81
2019-01-27T00:48:43.174Z,68.81
2019-01-27T00:49:23.798Z,69.1
2019-01-27T00:50:04.436Z,68.81
2019-01-27T00:50:45.060Z,69.01
2019-01-27T00:51:25.685Z,69.1
2019-01-27T00:52:06.278Z,69.01
2019-01-27T00:52:46.910Z,68.81
2019-01-27T00:53:27.552Z,68.91
2019-01-27T00:54:08.185Z,69.2
2019-01-27T00:54:48.806Z,68.91
2019-01-27T00:55:29.418Z,69.2
2019-01-27T00:56:10.020Z,69.29
2019-01-27T00:56:50.622Z,69.1
2019-01-27T00:57:31.219Z,69.1
2019-01-27T00:58:11.814Z,69.1
2019-01-27T00:58:52.434Z,68.62
2019-01-27T00:59:33.036Z,68.72
2019-01-27T01:00:13.672Z,69.01
2019-01-27T01:00:54.272Z,68.91
2019-01-27T01:01:34.892Z,69.1
2019-01-27T01:02:15.504Z,68.81
2019-01-27T01:02:56.123Z,69.1
2019-01-27T01:03:36.747Z,69.2
2019-01-27T01:04:17.352Z,68.62
2019-01-27T01:04:57.948Z,68.72
2019-01-27T01:05:38.598Z,69.01
2019-01-27T01:06:19.202Z,68.62
2019-01-27T01:06:59.804Z,68.72
2019-01-27T01:07:40.412Z,68.72
2019-01-27T01:08:21.006Z,68.91
2019-01-27T01:09:01.600Z,68.91
2019-01-27T01:09:42.206Z,69.1
2019-01-27T01:10:22.798Z,69.1
2019-01-27T01:11:03.412Z,68.81
2019-01-27T01:11:44.011Z,68.91
2019-01-27T01:12:24.616Z,68.72
2019-01-27T01:13:05.222Z,68.72
2019-01-27T01:13:45.880Z,68.72
2019-01-27T01:14:26.511Z,68.72
2019-01-27T01:15:07.132Z,69.01
2019-01-27T01:15:47.732Z,68.72
2019-01-27T01:16:28.338Z,69.1
2019-01-27T01:17:08.940Z,69.1
2019-01-27T01:17:49.544Z,68.81
2019-01-27T01:18:30.182Z,69.1
2019-01-27T01:19:10.782Z,68.81
2019-01-27T01:19:51.382Z,68.91
2019-01-27T01:21:41.368Z,69.01
2019-01-27T01:22:21.974Z,68.91
2019-01-27T01:23:02.568Z,69.01
2019-01-27T01:23:43.180Z,69.01
2019-01-27T01:24:23.790Z,68.91
2019-01-27T01:25:04.395Z,69.29
2019-01-27T01:25:44.990Z,69.01
2019-01-27T01:26:25.592Z,69.01
2019-01-27T01:27:06.190Z,69.01
2019-01-27T01:27:46.800Z,69.01
2019-01-27T01:28:27.429Z,68.91
2019-01-27T01:29:08.036Z,69.1
2019-01-27T01:29:48.637Z,69.2
2019-01-27T01:30:29.232Z,69.29
2019-01-27T01:31:09.840Z,69.1
2019-01-27T01:31:50.442Z,69.29
2019-01-27T01:32:31.064Z,69.1
2019-01-27T01:33:11.664Z,69.29
2019-01-27T01:33:52.314Z,69.29
2019-01-27T01:34:32.906Z,69.1
2019-01-27T01:35:13.514Z,69.39
2019-01-27T01:35:54.120Z,69.1
2019-01-27T01:36:34.710Z,69.2
2019-01-27T01:37:15.308Z,69.48
2019-01-27T01:37:55.904Z,68.91
2019-01-27T01:38:36.514Z,69.29
2019-01-27T01:39:17.121Z,69.29
2019-01-27T01:39:57.716Z,69.1
2019-01-27T01:40:38.363Z,68.91
2019-01-27T01:41:18.985Z,69.01
2019-01-27T01:41:59.579Z,69.1
2019-01-27T01:42:40.198Z,69.01
2019-01-27T01:43:20.811Z,69.29
2019-01-27T01:44:01.438Z,69.2
2019-01-27T01:44:42.048Z,68.91
2019-01-27T01:45:22.644Z,68.72
2019-01-27T01:46:03.242Z,69.1
2019-01-27T01:46:43.838Z,69.1
2019-01-27T01:47:24.436Z,68.91
2019-01-27T01:48:05.054Z,69.01
2019-01-27T01:48:45.660Z,69.1
2019-01-27T01:49:26.258Z,68.52
2019-01-27T01:50:06.866Z,68.72
2019-01-27T01:50:47.482Z,68.91
2019-01-27T01:51:28.089Z,68.91
2019-01-27T01:52:08.713Z,68.72
2019-01-27T01:52:49.341Z,68.33
2019-01-27T01:53:29.949Z,68.62
2019-01-27T01:54:10.569Z,69.01
2019-01-27T01:54:51.192Z,68.91
2019-01-27T01:55:31.778Z,69.1
2019-01-27T01:56:12.420Z,69.01
2019-01-27T01:56:53.024Z,69.01
2019-01-27T01:57:33.640Z,68.81
2019-01-27T01:58:14.286Z,69.01
2019-01-27T01:58:54.926Z,69.1
2019-01-27T01:59:35.542Z,69.1
2019-01-27T02:00:16.126Z,68.91
2019-01-27T02:00:56.738Z,68.62
2019-01-27T02:01:37.332Z,68.81
2019-01-27T02:02:17.934Z,68.91
2019-01-27T02:02:58.536Z,68.81
2019-01-27T02:03:39.142Z,69.01
2019-01-27T02:04:19.744Z,69.1
2019-01-27T02:05:00.352Z,69.1
2019-01-27T02:05:40.960Z,69.1
2019-01-27T02:06:21.568Z,68.62
2019-01-27T02:07:02.185Z,69.01
2019-01-27T02:07:42.802Z,68.91
2019-01-27T02:08:23.412Z,68.52
2019-01-27T02:09:04.020Z,69.01
2019-01-27T02:09:44.690Z,68.81
2019-01-27T02:10:25.276Z,68.91
2019-01-27T02:11:05.906Z,68.81
2019-01-27T02:11:46.522Z,68.52
2019-01-27T02:12:27.139Z,68.72
2019-01-27T02:13:07.777Z,68.72
2019-01-27T02:13:48.374Z,68.72
2019-01-27T02:14:28.986Z,68.91
2019-01-27T02:15:09.626Z,68.52
2019-01-27T02:15:50.302Z,68.52
2019-01-27T02:16:30.904Z,68.72
2019-01-27T02:17:11.521Z,68.62
2019-01-27T02:17:52.114Z,68.52
2019-01-27T02:18:32.718Z,68.52
2019-01-27T02:19:13.354Z,68.43
2019-01-27T02:19:53.957Z,68.24
2019-01-27T02:20:34.590Z,68.81
2019-01-27T02:21:15.240Z,68.81
2019-01-27T02:21:55.860Z,68.24
2019-01-27T02:22:36.476Z,68.43
2019-01-27T02:23:17.086Z,68.43
2019-01-27T02:23:57.694Z,68.43
2019-01-27T02:24:38.313Z,68.43
2019-01-27T02:25:18.920Z,68.43
2019-01-27T02:25:59.529Z,68.43
2019-01-27T02:26:40.138Z,68.62
2019-01-27T02:27:20.770Z,68.33
2019-01-27T02:28:01.416Z,68.33
2019-01-27T02:28:42.022Z,68.33
2019-01-27T02:29:22.617Z,68.43
2019-01-27T02:30:03.229Z,68.43
2019-01-27T02:30:43.842Z,68.43
2019-01-27T02:31:24.431Z,68.33
2019-01-27T02:32:05.068Z,68.24
2019-01-27T02:32:45.699Z,68.24
2019-01-27T02:33:26.312Z,68.43
2019-01-27T02:34:06.946Z,68.24
2019-01-27T02:34:47.570Z,68.72
2019-01-27T02:35:28.190Z,68.52
2019-01-27T02:36:08.851Z,68.43
2019-01-27T02:36:49.454Z,68.62
2019-01-27T02:37:30.062Z,68.43
2019-01-27T02:38:10.686Z,68.72
2019-01-27T02:38:51.319Z,68.72
2019-01-27T02:39:31.919Z,68.43
2019-01-27T02:40:12.532Z,68.52
2019-01-27T02:40:53.166Z,68.72
2019-01-27T02:41:33.816Z,68.43
2019-01-27T02:42:14.418Z,68.43
2019-01-27T02:42:55.042Z,68.52
2019-01-27T02:43:35.642Z,68.24
2019-01-27T02:44:16.253Z,68.62
2019-01-27T02:44:56.880Z,68.24
2019-01-27T02:45:37.486Z,68.52
2019-01-27T02:46:18.081Z,68.62
2019-01-27T02:46:58.690Z,68.24
2019-01-27T02:47:39.309Z,68.52
2019-01-27T02:48:19.992Z,68.52
2019-01-27T02:49:00.549Z,68.43
2019-01-27T02:49:41.142Z,68.43
2019-01-27T02:50:21.756Z,68.33
2019-01-27T02:51:02.376Z,68.33
2019-01-27T02:51:43.008Z,68.52
2019-01-27T02:52:23.614Z,68.43
2019-01-27T02:53:04.208Z,68.33
2019-01-27T02:53:44.814Z,68.52
2019-01-27T02:54:25.430Z,68.52
2019-01-27T02:55:06.060Z,68.33
2019-01-27T02:55:46.686Z,68.52
2019-01-27T02:56:27.313Z,68.43
2019-01-27T02:57:07.919Z,68.43
2019-01-27T02:57:48.526Z,68.52
2019-01-27T02:58:29.176Z,68.33
2019-01-27T02:59:09.828Z,68.24
2019-01-27T02:59:50.424Z,68.24
2019-01-27T03:00:31.036Z,68.33
2019-01-27T03:01:11.680Z,68.33
2019-01-27T03:01:52.289Z,68.43
2019-01-27T03:02:32.944Z,68.24
2019-01-27T03:03:13.572Z,68.24
2019-01-27T03:03:54.198Z,68.24
2019-01-27T03:04:34.966Z,68.43
2019-01-27T03:05:15.574Z,68.33
2019-01-27T03:05:56.213Z,68.52
2019-01-27T03:06:36.880Z,68.24
2019-01-27T03:07:17.508Z,68.24
2019-01-27T03:07:58.178Z,68.43
2019-01-27T03:08:38.839Z,68.43
2019-01-27T03:09:19.485Z,68.24
2019-01-27T03:10:00.278Z,68.24
2019-01-27T03:10:40.806Z,68.52
2019-01-27T03:11:21.428Z,68.62
2019-01-27T03:12:02.045Z,68.43
2019-01-27T03:12:42.642Z,68.43
2019-01-27T03:13:23.234Z,68.24
2019-01-27T03:14:03.840Z,68.24
2019-01-27T03:14:44.474Z,68.43
2019-01-27T03:15:25.094Z,68.52
2019-01-27T03:16:05.739Z,68.62
2019-01-27T03:16:46.334Z,68.52
2019-01-27T03:17:26.920Z,68.52
2019-01-27T03:18:07.540Z,68.33
2019-01-27T03:18:48.143Z,68.52
2019-01-27T03:19:28.797Z,68.24
2019-01-27T03:20:09.508Z,68.52
2019-01-27T03:20:50.114Z,68.43
2019-01-27T03:21:30.715Z,68.52
2019-01-27T03:22:11.330Z,68.05
2019-01-27T03:22:51.977Z,68.3
2019-01-27T03:23:32.582Z,68.14
2019-01-27T03:24:13.236Z,68.52
2019-01-27T03:24:53.844Z,68.33
2019-01-27T03:25:34.492Z,68.24
2019-01-27T03:26:15.122Z,68.33
2019-01-27T03:26:55.742Z,68.72
2019-01-27T03:27:36.337Z,68.72
2019-01-27T03:28:16.979Z,68.72
2019-01-27T03:28:57.618Z,68.72
2019-01-27T03:29:38.236Z,68.72
2019-01-27T03:30:18.961Z,68.62
2019-01-27T03:30:59.475Z,68.24
2019-01-27T03:31:40.150Z,68.24
2019-01-27T03:32:20.712Z,68.62
2019-01-27T03:33:01.306Z,68.72
2019-01-27T03:33:42.021Z,68.33
2019-01-27T03:34:22.698Z,68.33
2019-01-27T03:35:03.286Z,68.72
2019-01-27T03:35:43.914Z,68.72
2019-01-27T03:36:24.543Z,68.62
2019-01-27T03:37:05.163Z,68.24
2019-01-27T03:37:45.788Z,68.72
2019-01-27T03:38:26.393Z,68.62
2019-01-27T03:39:07.002Z,68.72
2019-01-27T03:39:47.610Z,68.72
2019-01-27T03:40:28.205Z,68.72
2019-01-27T03:41:08.823Z,68.52
2019-01-27T03:41:49.466Z,68.62
2019-01-27T03:42:30.078Z,68.91
2019-01-27T03:43:10.710Z,68.81
2019-01-27T03:43:51.338Z,68.72
2019-01-27T03:44:32.004Z,68.81
2019-01-27T03:45:12.619Z,68.91
2019-01-27T03:45:53.209Z,68.33
2019-01-27T03:46:33.817Z,68.33
2019-01-27T03:47:14.448Z,68.91
2019-01-27T03:47:55.055Z,68.68
2019-01-27T03:48:35.667Z,68.62
2019-01-27T03:49:16.271Z,68.43
2019-01-27T03:49:56.919Z,68.52
2019-01-27T03:50:37.520Z,68.33
2019-01-27T03:51:18.138Z,68.81
2019-01-27T03:51:58.741Z,68.52
2019-01-27T03:52:39.376Z,68.52
2019-01-27T03:53:20.005Z,68.62
2019-01-27T03:54:00.681Z,68.33
2019-01-27T03:54:41.299Z,68.62
2019-01-27T03:55:21.937Z,68.43
2019-01-27T03:56:02.554Z,68.24
2019-01-27T03:56:43.200Z,68.52
2019-01-27T03:57:23.825Z,68.05
2019-01-27T03:58:04.448Z,68.24
2019-01-27T03:58:45.069Z,68.24
2019-01-27T03:59:25.691Z,68.14
2019-01-27T04:00:06.289Z,68.21
2019-01-27T04:00:46.907Z,68.24
2019-01-27T04:01:27.527Z,68.33
2019-01-27T04:02:08.177Z,68.24
2019-01-27T04:02:48.771Z,68.05
2019-01-27T04:03:29.362Z,68.24
2019-01-27T04:04:09.973Z,68.33
2019-01-27T04:04:50.586Z,68.24
2019-01-27T04:05:31.193Z,68.14
2019-01-27T04:06:11.815Z,68.24
2019-01-27T04:06:52.445Z,68.24
2019-01-27T04:07:33.050Z,67.95
2019-01-27T04:08:13.658Z,68.05
2019-01-27T04:08:54.277Z,68.14
2019-01-27T04:09:34.908Z,68.14
2019-01-27T04:10:15.584Z,68.14
2019-01-27T04:10:56.183Z,68.05
2019-01-27T04:11:36.793Z,68.05
2019-01-27T04:12:17.423Z,68.14
2019-01-27T04:12:58.057Z,68.11
2019-01-27T04:13:38.675Z,68.01
2019-01-27T04:14:19.281Z,68.24
2019-01-27T04:14:59.915Z,68.14
2019-01-27T04:15:40.558Z,68.14
2019-01-27T04:16:21.159Z,68.14
2019-01-27T04:17:01.755Z,68.14
2019-01-27T04:17:42.367Z,68.24
2019-01-27T04:18:23.005Z,68.24
2019-01-27T04:19:03.608Z,68.05
2019-01-27T04:19:44.219Z,68.05
2019-01-27T04:20:24.868Z,68.14
2019-01-27T04:21:05.463Z,68.14
2019-01-27T04:21:46.083Z,68.14
2019-01-27T04:22:26.691Z,68.05
2019-01-27T04:23:07.285Z,68.24
2019-01-27T04:23:47.897Z,68.14
2019-01-27T04:24:28.499Z,68.62
2019-01-27T04:25:09.106Z,68.24
2019-01-27T04:25:49.735Z,68.24
2019-01-27T04:26:30.345Z,67.95
2019-01-27T04:27:10.970Z,67.95
2019-01-27T04:27:51.595Z,68.24
2019-01-27T04:28:32.191Z,68.24
2019-01-27T04:29:12.827Z,68.24
2019-01-27T04:29:53.443Z,68.14
2019-01-27T04:30:34.057Z,68.24
2019-01-27T04:31:14.680Z,68.11
2019-01-27T04:31:55.289Z,68.14
2019-01-27T04:32:35.899Z,68.24
2019-01-27T04:33:16.515Z,68.14
2019-01-27T04:33:57.135Z,68.14
2019-01-27T04:34:37.740Z,68.43
2019-01-27T04:35:18.344Z,68.14
2019-01-27T04:35:58.958Z,68.14
2019-01-27T04:36:39.561Z,68.14
2019-01-27T04:37:20.173Z,68.05
2019-01-27T04:38:00.812Z,68.33
2019-01-27T04:38:41.432Z,68.14
2019-01-27T04:39:22.101Z,68.81
2019-01-27T04:40:02.720Z,68.24
2019-01-27T04:40:43.322Z,68.24
2019-01-27T04:41:23.937Z,67.95
2019-01-27T04:42:04.550Z,68.14
2019-01-27T04:42:45.172Z,68.05
2019-01-27T04:43:25.781Z,68.05
2019-01-27T04:44:06.433Z,68.14
2019-01-27T04:44:47.031Z,68.24
2019-01-27T04:45:27.630Z,68.24
2019-01-27T04:46:08.241Z,68.49
2019-01-27T04:46:48.851Z,68.49
2019-01-27T04:47:29.451Z,68.62
2019-01-27T04:48:10.058Z,68.43
2019-01-27T04:48:50.659Z,68.24
2019-01-27T04:49:31.271Z,68.14
2019-01-27T04:50:11.929Z,68.14
2019-01-27T04:50:52.532Z,68.14
2019-01-27T04:51:33.144Z,68.14
2019-01-27T04:52:13.743Z,68.11
2019-01-27T04:52:54.347Z,68.43
2019-01-27T04:53:34.995Z,68.24
2019-01-27T04:54:15.601Z,68.33
2019-01-27T04:54:56.240Z,68.52
2019-01-27T04:55:36.851Z,68.49
2019-01-27T04:56:17.467Z,68.24
2019-01-27T04:56:58.093Z,68.11
2019-01-27T04:57:38.713Z,68.14
2019-01-27T04:58:19.306Z,68.24
2019-01-27T04:58:59.902Z,68.14
2019-01-27T04:59:40.502Z,68.14
2019-01-27T05:00:21.105Z,68.14
2019-01-27T05:01:01.714Z,68.21
2019-01-27T05:01:42.333Z,68.11
2019-01-27T05:02:22.975Z,68.14
2019-01-27T05:03:03.601Z,68.14
2019-01-27T05:03:44.188Z,68.14
2019-01-27T05:04:24.783Z,68.11
2019-01-27T05:05:05.445Z,68.14
2019-01-27T05:05:46.053Z,68.05
2019-01-27T05:06:26.657Z,68.11
2019-01-27T05:07:07.257Z,68.33
2019-01-27T05:07:47.884Z,68.24
2019-01-27T05:08:28.532Z,67.95
2019-01-27T05:09:09.143Z,68.24
2019-01-27T05:09:49.757Z,68.21
2019-01-27T05:10:30.359Z,68.24
2019-01-27T05:11:10.975Z,68.14
2019-01-27T05:11:51.584Z,68.14
2019-01-27T05:12:32.192Z,68.21
2019-01-27T05:13:12.808Z,67.91
2019-01-27T05:13:53.421Z,67.91
2019-01-27T05:14:34.023Z,68.21
2019-01-27T05:15:14.649Z,68.11
2019-01-27T05:15:55.286Z,68.21
2019-01-27T05:16:35.891Z,68.11
2019-01-27T05:17:16.507Z,68.05
2019-01-27T05:17:57.115Z,68.21
2019-01-27T05:18:37.718Z,68.01
2019-01-27T05:19:18.345Z,68.24
2019-01-27T05:19:58.987Z,68.21
2019-01-27T05:20:39.586Z,68.11
2019-01-27T05:21:20.201Z,68.21
2019-01-27T05:22:00.804Z,68.01
2019-01-27T05:22:41.451Z,68.11
2019-01-27T05:23:22.039Z,68.49
2019-01-27T05:24:02.687Z,67.82
2019-01-27T05:24:43.287Z,68.21
2019-01-27T05:25:23.892Z,68.01
2019-01-27T05:26:04.522Z,68.24
2019-01-27T05:26:45.161Z,68.14
2019-01-27T05:27:25.789Z,68.21
2019-01-27T05:28:06.415Z,68.14
2019-01-27T05:28:47.023Z,68.21
2019-01-27T05:29:27.619Z,68.21
2019-01-27T05:30:08.233Z,68.11
2019-01-27T05:30:48.875Z,68.24
2019-01-27T05:31:29.486Z,68.14
2019-01-27T05:32:10.079Z,68.14
2019-01-27T05:32:50.705Z,68.24
2019-01-27T05:33:31.315Z,68.14
2019-01-27T05:34:11.933Z,68.14
2019-01-27T05:34:52.589Z,68.3
2019-01-27T05:35:33.190Z,68.49
2019-01-27T05:36:13.890Z,68.14
2019-01-27T05:36:54.642Z,68.14
2019-01-27T05:37:35.292Z,68.01
2019-01-27T05:38:15.944Z,68.11
2019-01-27T05:38:56.550Z,68.21
2019-01-27T05:39:37.203Z,68.21
2019-01-27T05:40:17.894Z,67.82
2019-01-27T05:40:58.498Z,67.91
2019-01-27T05:41:39.099Z,68.11
2019-01-27T05:42:19.734Z,68.14
2019-01-27T05:43:00.367Z,68.11
2019-01-27T05:43:41.038Z,68.11
2019-01-27T05:44:21.644Z,68.3
2019-01-27T05:45:02.271Z,68.21
2019-01-27T05:45:42.873Z,68.21
2019-01-27T05:46:23.480Z,68.01
2019-01-27T05:47:04.131Z,68.05
2019-01-27T05:47:44.734Z,68.11
2019-01-27T05:48:25.344Z,68.11
2019-01-27T05:49:05.951Z,68.01
2019-01-27T05:49:46.546Z,68.21
2019-01-27T05:50:27.153Z,68.01
2019-01-27T05:51:07.791Z,68.01
2019-01-27T05:51:48.407Z,68.21
2019-01-27T05:52:29.017Z,67.82
2019-01-27T05:53:09.628Z,68.11
2019-01-27T05:53:50.248Z,68.01
2019-01-27T05:54:30.853Z,68.11
2019-01-27T05:55:11.505Z,68.11
2019-01-27T05:55:52.155Z,68.11
2019-01-27T05:56:32.785Z,68.33
2019-01-27T05:57:13.387Z,68.14
2019-01-27T05:57:54.015Z,68.14
2019-01-27T05:58:34.625Z,68.21
2019-01-27T05:59:15.233Z,67.95
2019-01-27T05:59:55.863Z,68.33
2019-01-27T06:00:36.480Z,68.78
2019-01-27T06:01:17.084Z,68.24
2019-01-27T06:01:57.673Z,68.05
2019-01-27T06:02:38.287Z,68.21
2019-01-27T06:03:18.882Z,68.33
2019-01-27T06:03:59.501Z,68.21
2019-01-27T06:04:40.113Z,68.49
2019-01-27T06:05:20.727Z,68.11
2019-01-27T06:06:01.379Z,68.21
2019-01-27T06:06:42.015Z,68.01
2019-01-27T06:07:22.635Z,67.91
2019-01-27T06:08:03.231Z,68.05
2019-01-27T06:08:43.841Z,68.21
2019-01-27T06:09:24.451Z,68.21
2019-01-27T06:10:05.075Z,68.11
2019-01-27T06:10:45.699Z,68.01
2019-01-27T06:11:26.315Z,68.11
2019-01-27T06:12:06.960Z,68.11
2019-01-27T06:12:47.587Z,68.11
2019-01-27T06:13:28.213Z,68.11
2019-01-27T06:14:08.819Z,67.82
2019-01-27T06:14:49.413Z,68.21
2019-01-27T06:15:30.023Z,68.11
2019-01-27T06:16:10.633Z,68.21
2019-01-27T06:16:51.249Z,68.21
2019-01-27T06:17:31.891Z,68.21
2019-01-27T06:18:12.485Z,68.11
2019-01-27T06:18:53.089Z,68.3
2019-01-27T06:19:33.681Z,68.3
2019-01-27T06:20:14.311Z,68.3
2019-01-27T06:20:54.911Z,68.3
2019-01-27T06:21:35.557Z,68.11
2019-01-27T06:22:16.211Z,68.11
2019-01-27T06:22:56.866Z,68.78
2019-01-27T06:23:37.479Z,67.91
2019-01-27T06:24:18.099Z,68.01
2019-01-27T06:24:58.761Z,68.01
2019-01-27T06:25:39.394Z,68.01
2019-01-27T06:26:20.097Z,68.01
2019-01-27T06:27:00.880Z,68.11
2019-01-27T06:27:41.727Z,68.01
2019-01-27T06:28:22.373Z,68.3
2019-01-27T06:29:02.983Z,68.01
2019-01-27T06:29:43.589Z,68.11
2019-01-27T06:30:24.199Z,68.49
2019-01-27T06:31:04.803Z,68.21
2019-01-27T06:31:45.421Z,68.3
2019-01-27T06:32:26.061Z,68.01
2019-01-27T06:33:06.709Z,68.3
2019-01-27T06:33:47.314Z,68.11
2019-01-27T06:34:27.971Z,68.3
2019-01-27T06:35:08.611Z,68.24
2019-01-27T06:35:49.257Z,68.3
2019-01-27T06:36:29.872Z,68.01
2019-01-27T06:37:10.467Z,68.21
2019-01-27T06:37:51.071Z,68.11
2019-01-27T06:38:31.711Z,68.3
2019-01-27T06:39:12.329Z,68.01
2019-01-27T06:39:52.940Z,68.01
2019-01-27T06:40:33.538Z,68.21
2019-01-27T06:41:14.169Z,68.14
2019-01-27T06:41:54.786Z,68.01
2019-01-27T06:42:35.394Z,68.21
2019-01-27T06:43:16.003Z,68.4
2019-01-27T06:43:56.601Z,68.11
2019-01-27T06:44:37.227Z,68.3
2019-01-27T06:45:17.842Z,68.11
2019-01-27T06:45:58.435Z,68.3
2019-01-27T06:46:39.055Z,68.21
2019-01-27T06:47:19.703Z,68.11
2019-01-27T06:48:00.305Z,68.11
2019-01-27T06:48:40.945Z,68.11
2019-01-27T06:49:21.553Z,68.21
2019-01-27T06:50:02.209Z,68.4
2019-01-27T06:50:42.807Z,68.49
2019-01-27T06:51:23.425Z,68.3
2019-01-27T06:52:04.025Z,68.21
2019-01-27T06:52:44.675Z,68.11
2019-01-27T06:53:25.287Z,68.4
2019-01-27T06:54:05.915Z,68.01
2019-01-27T06:54:46.539Z,68.01
2019-01-27T06:55:27.171Z,68.49
2019-01-27T06:56:07.775Z,68.59
2019-01-27T06:56:48.387Z,67.72
2019-01-27T06:57:29.087Z,67.72
2019-01-27T06:58:10.037Z,67.63
2019-01-27T06:58:50.381Z,67.72
2019-01-27T06:59:31.013Z,68.21
2019-01-27T07:00:11.637Z,67.95
2019-01-27T07:00:52.279Z,67.72
2019-01-27T07:01:32.891Z,68.49
2019-01-27T07:02:13.497Z,67.91
2019-01-27T07:02:54.155Z,67.91
2019-01-27T07:03:34.775Z,68.49
2019-01-27T07:04:15.377Z,68.49
2019-01-27T07:04:56.021Z,68.4
2019-01-27T07:05:36.616Z,68.4
2019-01-27T07:06:17.233Z,67.72
2019-01-27T07:06:57.847Z,67.72
2019-01-27T07:07:38.465Z,67.91
2019-01-27T07:08:19.151Z,67.91
2019-01-27T07:08:59.742Z,68.3
2019-01-27T07:09:40.354Z,67.91
2019-01-27T07:10:20.975Z,68.49
2019-01-27T07:11:01.632Z,68.01
2019-01-27T07:11:42.237Z,68.3
2019-01-27T07:12:22.839Z,68.59
2019-01-27T07:13:03.555Z,68.11
2019-01-27T07:13:44.229Z,68.49
2019-01-27T07:14:24.847Z,68.01
2019-01-27T07:15:05.465Z,68.4
2019-01-27T07:15:46.091Z,68.4
2019-01-27T07:16:26.708Z,68.01
2019-01-27T07:17:07.328Z,68.11
2019-01-27T07:17:47.922Z,68.11
2019-01-27T07:18:28.527Z,68.01
2019-01-27T07:19:09.166Z,68.21
2019-01-27T07:19:49.779Z,68.01
2019-01-27T07:20:30.397Z,68.11
2019-01-27T07:21:11.009Z,67.72
2019-01-27T07:21:51.634Z,67.91
2019-01-27T07:22:32.252Z,68.21
2019-01-27T07:23:12.884Z,68.11
2019-01-27T07:23:53.505Z,68.11
2019-01-27T07:24:34.109Z,67.91
2019-01-27T07:25:14.741Z,68.3
2019-01-27T07:25:55.357Z,67.63
2019-01-27T07:26:35.989Z,67.82
2019-01-27T07:27:16.650Z,67.91
2019-01-27T07:27:57.257Z,67.72
2019-01-27T07:28:37.893Z,67.91
2019-01-27T07:29:18.495Z,67.82
2019-01-27T07:29:59.113Z,67.72
2019-01-27T07:30:39.721Z,67.72
2019-01-27T07:31:20.353Z,67.91
2019-01-27T07:32:00.959Z,67.91
2019-01-27T07:32:41.573Z,67.72
2019-01-27T07:33:22.191Z,67.72
2019-01-27T07:34:02.807Z,67.91
2019-01-27T07:34:43.432Z,67.82
2019-01-27T07:35:24.046Z,67.76
2019-01-27T07:36:04.658Z,67.72
2019-01-27T07:36:45.269Z,68.01
2019-01-27T07:37:25.887Z,67.76
2019-01-27T07:38:06.503Z,67.91
2019-01-27T07:38:47.096Z,67.44
2019-01-27T07:39:27.739Z,67.66
2019-01-27T07:40:08.340Z,67.57
2019-01-27T07:40:48.933Z,67.85
2019-01-27T07:41:29.555Z,68.01
2019-01-27T07:42:10.147Z,67.54
2019-01-27T07:42:50.753Z,68.01
2019-01-27T07:43:31.344Z,67.66
2019-01-27T07:44:11.964Z,67.54
2019-01-27T07:44:52.552Z,67.44
2019-01-27T07:45:33.179Z,67.76
2019-01-27T07:46:13.949Z,68.01
2019-01-27T07:46:54.650Z,67.95
2019-01-27T07:47:35.252Z,67.85
2019-01-27T07:48:15.881Z,67.66
2019-01-27T07:48:56.473Z,67.91
2019-01-27T07:49:37.080Z,67.66
2019-01-27T07:50:17.697Z,67.47
2019-01-27T07:50:58.313Z,67.47
2019-01-27T07:51:38.923Z,67.85
2019-01-27T07:52:19.541Z,67.95
2019-01-27T07:53:00.172Z,67.66
2019-01-27T07:53:40.778Z,67.54
2019-01-27T07:54:21.409Z,67.57
2019-01-27T07:55:02.027Z,67.66
2019-01-27T07:55:42.647Z,67.66
2019-01-27T07:56:23.298Z,67.72
2019-01-27T07:57:03.907Z,67.47
2019-01-27T07:57:44.511Z,67.57
2019-01-27T07:58:25.128Z,67.38
2019-01-27T07:59:05.739Z,67.47
2019-01-27T07:59:46.346Z,66.8
2019-01-27T08:00:26.988Z,66.89
2019-01-27T08:01:07.618Z,67.09
2019-01-27T08:01:48.255Z,66.89
2019-01-27T08:02:28.869Z,66.89
2019-01-27T08:03:12.019Z,67.09
2019-01-27T08:03:50.113Z,67.18
2019-01-27T08:04:30.778Z,66.99
2019-01-27T08:05:11.425Z,67.18
2019-01-27T08:05:52.304Z,67.18
2019-01-27T08:06:33.144Z,67.09
2019-01-27T08:07:14.019Z,67.18
2019-01-27T08:07:54.706Z,66.99
2019-01-27T08:08:35.317Z,67.18
2019-01-27T08:09:15.952Z,67.09
2019-01-27T08:09:56.565Z,67.09
2019-01-27T08:10:37.210Z,67.09
2019-01-27T08:11:17.835Z,67.18
2019-01-27T08:11:58.473Z,67.09
2019-01-27T08:12:39.111Z,67.18
2019-01-27T08:13:19.723Z,67.09
2019-01-27T08:14:00.333Z,67.38
2019-01-27T08:14:40.934Z,66.89
2019-01-27T08:15:21.533Z,66.71
2019-01-27T08:16:02.194Z,67.28
2019-01-27T08:16:42.827Z,67.28
2019-01-27T08:17:23.472Z,66.8
2019-01-27T08:18:04.140Z,66.51
2019-01-27T08:18:44.782Z,66.8
2019-01-27T08:19:25.438Z,66.8
2019-01-27T08:20:06.039Z,66.61
2019-01-27T08:20:46.650Z,66.71
2019-01-27T08:21:27.468Z,66.71
2019-01-27T08:22:08.092Z,66.51
2019-01-27T08:22:48.687Z,66.61
2019-01-27T08:23:29.289Z,66.61
2019-01-27T08:24:09.919Z,67.09
2019-01-27T08:24:50.517Z,67.38
2019-01-27T08:25:31.118Z,66.8
2019-01-27T08:26:11.740Z,66.51
2019-01-27T08:26:52.346Z,66.61
2019-01-27T08:27:32.991Z,66.71
2019-01-27T08:28:13.646Z,66.71
2019-01-27T08:28:54.267Z,66.71
2019-01-27T08:29:34.890Z,66.71
2019-01-27T08:30:15.534Z,66.61
2019-01-27T08:30:56.575Z,66.71
2019-01-27T08:31:37.220Z,66.71
2019-01-27T08:32:17.856Z,66.51
2019-01-27T08:32:58.501Z,66.71
2019-01-27T08:33:39.137Z,66.71
2019-01-27T08:34:19.812Z,66.61
2019-01-27T08:35:00.428Z,66.71
2019-01-27T08:35:41.041Z,66.71
2019-01-27T08:36:21.648Z,66.42
2019-01-27T08:37:02.253Z,66.61
2019-01-27T08:37:42.858Z,66.61
2019-01-27T08:38:23.469Z,66.8
2019-01-27T08:39:04.104Z,66.89
2019-01-27T08:39:44.709Z,66.71
2019-01-27T08:42:00.158Z,66.71
2019-01-27T08:42:41.460Z,66.71
2019-01-27T08:43:21.388Z,66.99
2019-01-27T08:44:02.020Z,66.71
2019-01-27T08:44:42.748Z,66.99
2019-01-27T08:45:23.362Z,66.61
2019-01-27T08:46:03.996Z,66.61
2019-01-27T08:46:44.768Z,66.89
2019-01-27T08:47:25.421Z,66.71